Time;durP1;ratioP1;P1;durP2;ratioP2;P2;SDS_P1;SDS_P2;PMS_P1;PMS_P2;Temp;Humidity;BMP_temperature;BMP_pressure;BME280_temperature;BME280_humidity;BME280_pressure;Samples;Min_cycle;Max_cycle;Signal;HPM_P1;HPM_P2
2022/05/24 00:01:17;;;;;;;2.83;1.90;;;16.40;99.90;;;;;;10350247;28;20049;-60
2022/05/24 00:06:19;;;;;;;5.68;2.17;;;16.30;99.90;;;;;;10354310;28;20127;-59
2022/05/24 00:11:20;;;;;;;7.13;3.20;;;16.20;99.90;;;;;;10351338;28;20046;-61
2022/05/24 00:16:22;;;;;;;5.03;1.67;;;16.10;99.90;;;;;;10352095;28;20519;-61
2022/05/24 00:21:24;;;;;;;2.13;1.20;;;16.10;99.90;;;;;;10353069;28;20106;-60
2022/05/24 00:26:30;;;;;;;1.40;0.80;;;16.00;99.90;;;;;;10351243;28;20167;-60
2022/05/24 00:31:31;;;;;;;1.73;0.73;;;16.00;99.90;;;;;;10353917;28;20116;-60
2022/05/24 00:36:33;;;;;;;1.27;0.70;;;16.00;99.90;;;;;;10350485;28;20050;-61
2022/05/24 00:41:40;;;;;;;1.42;0.60;;;16.00;99.90;;;;;;10352635;28;20068;-60
2022/05/24 00:46:51;;;;;;;2.85;0.43;;;16.00;99.90;;;;;;10350296;28;20097;-60
2022/05/24 00:51:58;;;;;;;1.90;0.50;;;16.00;99.90;;;;;;10352860;28;20104;-60
2022/05/24 00:57:04;;;;;;;;;;;16.10;99.90;;;;;;10352079;28;20042;-60
2022/05/24 01:02:06;;;;;;;1.63;0.60;;;16.10;99.90;;;;;;10352170;28;19921;-60
2022/05/24 01:07:08;;;;;;;1.38;0.70;;;16.10;99.90;;;;;;10352584;28;20057;-60
2022/05/24 01:12:19;;;;;;;1.30;0.50;;;16.10;99.90;;;;;;10350882;28;20100;-60
2022/05/24 01:17:21;;;;;;;1.98;0.35;;;16.00;99.90;;;;;;10348720;28;20140;-59
2022/05/24 01:22:26;;;;;;;0.35;0.28;;;16.00;99.90;;;;;;10350103;28;20046;-60
2022/05/24 01:27:27;;;;;;;0.50;0.20;;;16.10;99.90;;;;;;10347829;28;20049;-60
2022/05/24 01:37:49;;;;;;;0.73;0.30;;;16.10;99.90;;;;;;10348323;28;20078;-59
2022/05/24 01:42:51;;;;;;;0.25;0.20;;;16.10;99.90;;;;;;10349772;28;20053;-60
2022/05/24 01:47:59;;;;;;;0.50;0.30;;;16.10;99.90;;;;;;10346277;28;20049;-60
2022/05/24 01:53:06;;;;;;;3.65;0.60;;;16.00;99.90;;;;;;10338441;28;20404;-61
2022/05/24 01:58:12;;;;;;;1.10;0.60;;;16.00;99.90;;;;;;10350339;28;20045;-61
2022/05/24 02:03:14;;;;;;;1.30;0.60;;;16.10;99.90;;;;;;10347216;28;20096;-60
2022/05/24 02:08:16;;;;;;;2.08;0.60;;;16.10;99.90;;;;;;10349300;28;20050;-60
2022/05/24 02:13:34;;;;;;;1.98;0.90;;;16.10;99.90;;;;;;10348970;28;20376;-61
2022/05/24 02:18:39;;;;;;;2.15;0.70;;;16.00;99.90;;;;;;10348486;28;20045;-60
2022/05/24 02:23:44;;;;;;;1.58;0.80;;;16.00;99.90;;;;;;10347834;28;20455;-60
2022/05/24 02:28:50;;;;;;;2.20;0.60;;;15.80;99.90;;;;;;10348599;28;20049;-60
2022/05/24 02:33:52;;;;;;;3.27;0.70;;;15.80;99.90;;;;;;10350073;28;20087;-60
2022/05/24 02:38:54;;;;;;;0.90;0.70;;;15.70;99.90;;;;;;10348772;28;20042;-60
2022/05/24 02:44:02;;;;;;;1.67;0.90;;;15.60;99.90;;;;;;10348250;28;20096;-61
2022/05/24 02:49:04;;;;;;;1.60;0.55;;;15.50;99.90;;;;;;10347577;28;20053;-59
2022/05/24 02:54:07;;;;;;;1.80;0.82;;;15.40;99.90;;;;;;10347588;28;20056;-60
2022/05/24 02:59:09;;;;;;;1.55;0.93;;;15.50;99.90;;;;;;10343889;28;20084;-60
2022/05/24 03:04:11;;;;;;;0.85;0.73;;;15.50;99.90;;;;;;10346205;28;20057;-61
2022/05/24 03:14:34;;;;;;;3.05;0.80;;;15.50;99.90;;;;;;10346992;28;20108;-59
2022/05/24 03:19:35;;;;;;;1.98;0.93;;;15.50;99.90;;;;;;10346231;28;20686;-60
2022/05/24 03:24:40;;;;;;;1.88;0.65;;;15.50;99.90;;;;;;10343475;28;20084;-60
2022/05/24 03:29:43;;;;;;;2.55;1.27;;;15.50;99.90;;;;;;10347255;28;20133;-61
2022/05/24 03:34:45;;;;;;;2.67;1.00;;;15.50;99.90;;;;;;10346032;28;20049;-62
2022/05/24 03:39:48;;;;;;;1.55;0.77;;;15.50;99.90;;;;;;10347191;28;20061;-62
2022/05/24 03:44:52;;;;;;;3.97;1.08;;;15.60;99.90;;;;;;10343941;28;20073;-60
2022/05/24 03:49:54;;;;;;;1.30;0.70;;;15.60;99.90;;;;;;10345440;28;20108;-63
2022/05/24 03:54:56;;;;;;;1.27;0.75;;;15.70;99.90;;;;;;10353079;28;20049;-62
2022/05/24 03:59:58;;;;;;;2.90;1.33;;;15.60;99.90;;;;;;10344241;28;20084;-61
2022/05/24 04:05:00;;;;;;;10.27;1.55;;;15.60;99.90;;;;;;10343676;28;20064;-62
2022/05/24 04:10:03;;;;;;;3.17;1.40;;;15.70;99.90;;;;;;10347741;28;20079;-62
2022/05/24 04:15:06;;;;;;;1.40;1.10;;;15.70;99.90;;;;;;10350889;28;20475;-60
2022/05/24 04:20:10;;;;;;;3.75;1.10;;;15.70;99.90;;;;;;10350285;28;20473;-62
2022/05/24 04:25:13;;;;;;;3.55;0.90;;;15.80;99.90;;;;;;10349908;28;20476;-63
2022/05/24 04:30:16;;;;;;;3.78;1.50;;;15.90;99.90;;;;;;10348959;28;20113;-63
2022/05/24 04:35:18;;;;;;;3.45;1.08;;;15.90;99.90;;;;;;10349695;28;20050;-63
2022/05/24 04:42:18;;;;;;;7.15;1.25;;;15.90;99.90;;;;;;10311502;28;1040020;-63
2022/05/24 04:45:41;;;;;;;5.07;1.40;;;16.00;99.90;;;;;;10352900;28;20064;-63
2022/05/24 04:50:43;;;;;;;2.72;1.23;;;16.10;99.90;;;;;;10347343;28;20054;-59
2022/05/24 04:55:47;;;;;;;2.45;1.25;;;16.20;99.90;;;;;;10352809;28;20053;-60
2022/05/24 05:00:49;;;;;;;4.68;2.10;;;16.30;99.90;;;;;;10351127;28;20056;-59
2022/05/24 05:05:52;;;;;;;3.00;2.20;;;16.30;99.90;;;;;;10350188;28;20057;-60
2022/05/24 05:10:54;;;;;;;5.38;2.00;;;16.30;99.90;;;;;;10351076;28;20103;-63
2022/05/24 05:15:55;;;;;;;6.32;2.00;;;16.30;99.90;;;;;;10349504;28;20045;-60
2022/05/24 05:20:59;;;;;;;3.53;1.95;;;16.20;99.90;;;;;;10350292;28;20042;-61
2022/05/24 05:26:00;;;;;;;4.20;2.03;;;16.20;99.90;;;;;;10350568;28;20042;-62
2022/05/24 05:31:26;;;;;;;2.63;1.88;;;16.20;99.90;;;;;;10346203;28;20050;-63
2022/05/24 05:36:27;;;;;;;2.97;1.70;;;16.30;99.90;;;;;;10348438;28;20061;-63
2022/05/24 05:41:31;;;;;;;2.53;1.35;;;16.20;99.90;;;;;;10339146;28;20045;-61
2022/05/24 05:46:32;;;;;;;1.95;1.45;;;16.10;99.90;;;;;;10348187;28;20062;-60
2022/05/24 05:51:34;;;;;;;2.33;1.67;;;16.20;99.90;;;;;;10346947;28;20046;-60
2022/05/24 05:56:36;;;;;;;1.77;1.33;;;16.20;99.90;;;;;;10347721;28;20046;-60
2022/05/24 06:01:38;;;;;;;4.45;1.17;;;16.00;99.90;;;;;;10348170;28;20292;-60
2022/05/24 06:06:42;;;;;;;3.70;1.00;;;16.10;99.90;;;;;;10348996;28;20127;-60
2022/05/24 06:11:44;;;;;;;1.88;0.77;;;16.20;99.90;;;;;;10347074;28;20053;-60
2022/05/24 06:16:46;;;;;;;2.60;0.63;;;16.30;99.90;;;;;;10348037;28;20116;-62
2022/05/24 06:21:47;;;;;;;4.90;0.88;;;16.40;99.90;;;;;;10347430;28;20064;-63
2022/05/24 06:26:50;;;;;;;2.65;0.90;;;16.20;99.90;;;;;;10344766;28;20046;-64
2022/05/24 06:31:52;;;;;;;1.70;0.68;;;15.50;99.90;;;;;;10343875;28;20042;-64
2022/05/24 06:36:54;;;;;;;4.20;0.57;;;14.80;99.90;;;;;;10344906;28;20064;-64
2022/05/24 06:41:55;;;;;;;2.35;0.70;;;14.50;99.90;;;;;;10331946;28;20050;-64
2022/05/24 06:46:57;;;;;;;0.63;0.45;;;14.40;99.90;;;;;;10343320;28;20535;-65
2022/05/24 06:51:59;;;;;;;1.00;0.40;;;14.30;99.90;;;;;;10347852;28;20435;-64
2022/05/24 06:57:01;;;;;;;1.27;0.40;;;14.30;99.90;;;;;;10344564;28;20046;-64
2022/05/24 07:07:24;;;;;;;2.60;0.30;;;14.50;99.90;;;;;;10346315;28;20054;-63
2022/05/24 07:12:26;;;;;;;3.53;0.40;;;14.60;99.90;;;;;;10347491;28;20065;-63
2022/05/24 07:17:28;;;;;;;0.77;0.40;;;14.60;99.90;;;;;;10347992;28;20046;-63
2022/05/24 07:22:31;;;;;;;0.60;0.30;;;14.60;99.90;;;;;;10345311;28;20061;-63
2022/05/24 07:27:33;;;;;;;0.38;0.28;;;14.70;99.90;;;;;;10345651;28;20053;-63
2022/05/24 07:32:35;;;;;;;1.63;0.30;;;14.80;99.90;;;;;;10345454;28;20400;-63
2022/05/24 07:37:36;;;;;;;0.30;0.20;;;14.80;99.90;;;;;;10346022;28;20065;-63
2022/05/24 07:47:58;;;;;;;1.33;0.30;;;14.90;99.90;;;;;;10352271;28;20104;-63
2022/05/24 07:53:00;;;;;;;0.85;0.10;;;14.80;99.90;;;;;;10353517;28;20431;-63
2022/05/24 07:58:02;;;;;;;1.35;0.17;;;14.90;99.90;;;;;;10353847;28;20058;-66
2022/05/24 08:03:06;;;;;;;3.20;0.20;;;15.00;99.90;;;;;;10352619;28;20107;-66
2022/05/24 08:08:09;;;;;;;0.40;0.10;;;15.10;99.90;;;;;;10352087;28;20720;-65
2022/05/24 08:13:14;;;;;;;0.30;0.20;;;15.20;99.90;;;;;;10350593;28;20481;-66
2022/05/24 08:18:17;;;;;;;0.35;0.20;;;15.30;99.90;;;;;;10351339;28;20057;-66
2022/05/24 08:23:20;;;;;;;0.20;0.10;;;15.10;99.90;;;;;;10351979;28;20345;-66
2022/05/24 08:28:23;;;;;;;0.20;0.20;;;15.10;99.90;;;;;;10352884;28;20052;-66
2022/05/24 08:33:25;;;;;;;2.22;0.20;;;15.30;99.90;;;;;;10352887;28;20551;-66
2022/05/24 08:38:28;;;;;;;0.10;0.10;;;15.50;99.90;;;;;;10351425;28;20116;-66
2022/05/24 08:43:50;;;;;;;1.20;0.20;;;15.60;99.90;;;;;;10353204;28;20511;-66
2022/05/24 08:49:05;;;;;;;0.30;0.13;;;15.70;99.90;;;;;;10348056;28;20050;-65
2022/05/24 08:54:12;;;;;;;0.20;0.10;;;15.60;99.90;;;;;;10351501;28;20120;-64
2022/05/24 08:59:26;;;;;;;1.27;0.10;;;15.50;99.90;;;;;;10350402;28;20100;-64
2022/05/24 09:04:30;;;;;;;0.13;0.10;;;15.80;99.90;;;;;;10350895;28;20045;-64
2022/05/24 09:09:56;;;;;;;0.00;0.00;;;16.20;99.90;;;;;;10353107;28;20049;-63
2022/05/24 09:15:10;;;;;;;0.20;0.03;;;16.20;99.90;;;;;;10350977;28;20498;-64
2022/05/24 09:20:25;;;;;;;0.10;0.08;;;16.30;99.90;;;;;;10350812;28;20050;-64
2022/05/24 09:25:26;;;;;;;1.75;0.08;;;16.40;99.90;;;;;;10349773;28;20401;-61
2022/05/24 09:30:28;;;;;;;1.92;0.00;;;16.60;99.90;;;;;;10349644;28;20520;-61
2022/05/24 09:35:30;;;;;;;0.38;0.10;;;16.70;99.90;;;;;;10347653;28;20057;-61
2022/05/24 09:40:51;;;;;;;0.38;0.10;;;16.80;99.90;;;;;;10346798;28;20046;-61
2022/05/24 09:46:06;;;;;;;0.52;0.10;;;16.90;99.90;;;;;;10350016;28;20046;-61
2022/05/24 09:51:12;;;;;;;1.20;0.10;;;17.00;99.90;;;;;;10350025;28;20526;-62
2022/05/24 09:56:29;;;;;;;0.55;0.10;;;16.90;96.90;;;;;;10345363;28;20099;-61
2022/05/24 10:01:43;;;;;;;0.20;0.10;;;17.40;97.30;;;;;;10350945;28;20049;-61
2022/05/24 10:07:00;;;;;;;0.05;0.00;;;17.60;95.10;;;;;;10345060;28;20416;-60
2022/05/24 10:12:13;;;;;;;0.10;0.00;;;18.00;94.80;;;;;;10347789;28;20175;-61
2022/05/24 10:17:47;;;;;;;0.00;0.00;;;17.40;96.20;;;;;;10346822;28;20038;-61
2022/05/24 10:23:12;;;;;;;1.20;0.00;;;16.90;94.90;;;;;;10343582;28;20475;-61
2022/05/24 10:28:45;;;;;;;0.22;0.00;;;16.60;99.40;;;;;;10344087;28;20049;-61
2022/05/24 10:39:47;;;;;;;0.20;0.05;;;17.50;93.10;;;;;;10347603;28;20046;-60
2022/05/24 10:45:07;;;;;;;0.40;0.10;;;17.90;89.70;;;;;;10344172;28;20564;-60
2022/05/24 10:50:13;;;;;;;1.08;0.00;;;17.90;86.10;;;;;;10345810;28;20108;-60
2022/05/24 10:55:22;;;;;;;0.47;0.00;;;18.30;83.10;;;;;;10345517;28;20204;-59
2022/05/24 11:00:49;;;;;;;0.38;0.00;;;18.30;81.30;;;;;;10348084;28;20100;-59
2022/05/24 11:06:01;;;;;;;0.00;0.00;;;18.70;76.40;;;;;;10337726;28;20579;-59
2022/05/24 11:11:36;;;;;;;1.33;0.10;;;19.00;74.30;;;;;;10347315;28;24185;-59
2022/05/24 11:16:41;;;;;;;0.00;0.00;;;19.00;71.60;;;;;;10346721;28;20584;-59
2022/05/24 11:21:50;;;;;;;0.70;0.10;;;18.90;72.90;;;;;;10352355;28;20567;-59
2022/05/24 11:26:55;;;;;;;1.42;0.00;;;18.40;74.20;;;;;;10354517;28;20045;-59
2022/05/24 11:32:03;;;;;;;0.00;0.00;;;18.40;73.80;;;;;;10352105;28;20046;-61
2022/05/24 11:37:24;;;;;;;0.00;0.00;;;18.30;69.10;;;;;;10355087;28;20062;-61
2022/05/24 11:42:45;;;;;;;0.70;0.00;;;18.30;71.80;;;;;;10352158;28;20053;-61
2022/05/24 11:47:47;;;;;;;0.05;0.05;;;18.40;72.80;;;;;;10351191;28;20057;-61
2022/05/24 11:53:05;;;;;;;1.75;0.28;;;18.60;70.70;;;;;;10351725;28;20050;-61
2022/05/24 11:58:20;;;;;;;0.47;0.03;;;18.70;70.10;;;;;;10352933;28;20050;-61
2022/05/24 12:09:05;;;;;;;0.08;0.00;;;19.10;73.60;;;;;;10350645;28;20104;-62
2022/05/24 12:14:18;;;;;;;0.08;0.00;;;19.30;72.30;;;;;;10351748;28;20045;-61
2022/05/24 12:19:45;;;;;;;0.10;0.00;;;19.20;69.00;;;;;;10350834;28;20050;-62
2022/05/24 12:24:51;;;;;;;2.53;0.10;;;19.40;70.30;;;;;;10343362;28;20053;-63
2022/05/24 12:29:57;;;;;;;0.25;0.00;;;19.60;69.60;;;;;;10352463;28;20050;-63
2022/05/24 12:35:07;;;;;;;;;;;19.90;68.50;;;;;;10352665;28;20045;-62
2022/05/24 12:40:27;;;;;;;0.25;0.08;;;20.40;67.30;;;;;;10351253;28;20359;-62
2022/05/24 12:45:38;;;;;;;0.10;0.10;;;20.10;64.70;;;;;;10351201;28;20057;-62
2022/05/24 12:50:40;;;;;;;1.17;0.10;;;20.30;66.50;;;;;;10350480;28;20103;-62
2022/05/24 12:55:58;;;;;;;2.63;0.10;;;20.20;62.90;;;;;;10351262;28;20038;-62
2022/05/24 13:01:26;;;;;;;0.38;0.00;;;19.80;63.70;;;;;;10348890;28;20053;-61
2022/05/24 13:06:33;;;;;;;0.10;0.05;;;19.70;60.80;;;;;;10350671;28;20038;-60
2022/05/24 13:11:35;;;;;;;0.10;0.00;;;20.20;60.20;;;;;;10350251;28;20069;-61
2022/05/24 13:16:38;;;;;;;0.03;0.00;;;20.30;60.80;;;;;;10349545;28;20053;-61
2022/05/24 13:21:40;;;;;;;0.10;0.10;;;19.90;59.40;;;;;;10351548;28;20060;-60
2022/05/24 13:27:02;;;;;;;4.15;0.10;;;19.70;59.90;;;;;;10349929;28;20084;-61
2022/05/24 13:37:49;;;;;;;0.00;0.00;;;20.30;59.60;;;;;;10358948;28;20054;-62
2022/05/24 13:42:54;;;;;;;0.10;0.00;;;20.70;58.60;;;;;;10348156;28;20068;-62
2022/05/24 13:48:20;;;;;;;0.55;0.03;;;20.70;55.60;;;;;;10348477;28;20108;-61
2022/05/24 13:53:38;;;;;;;0.08;0.00;;;21.30;56.70;;;;;;10347105;28;20100;-62
2022/05/24 13:58:46;;;;;;;1.15;0.00;;;21.80;55.90;;;;;;10349728;28;20108;-62
2022/05/24 14:03:53;;;;;;;0.85;0.10;;;21.80;52.80;;;;;;10349196;28;20054;-61
2022/05/24 14:08:57;;;;;;;0.32;0.00;;;22.20;51.00;;;;;;10347921;28;20046;-62
2022/05/24 14:13:59;;;;;;;0.10;0.10;;;22.00;51.20;;;;;;10347966;28;20046;-61
2022/05/24 14:19:01;;;;;;;0.10;0.00;;;21.40;51.00;;;;;;10345972;28;20491;-62
2022/05/24 14:24:04;;;;;;;0.00;0.00;;;21.60;51.90;;;;;;10347611;28;20056;-64
2022/05/24 14:29:06;;;;;;;0.65;0.10;;;21.80;51.70;;;;;;10345209;28;20719;-63
2022/05/24 14:34:10;;;;;;;0.50;0.08;;;22.20;51.90;;;;;;10351677;28;20416;-63
2022/05/24 14:39:13;;;;;;;0.80;0.00;;;22.10;52.40;;;;;;10347607;28;20062;-63
2022/05/24 14:44:23;;;;;;;0.10;0.10;;;21.80;52.90;;;;;;10361907;28;20053;-63
2022/05/24 14:49:25;;;;;;;0.52;0.00;;;21.50;53.10;;;;;;10332925;28;20129;-64
2022/05/24 14:54:28;;;;;;;0.20;0.08;;;21.80;54.30;;;;;;10347279;28;20073;-64
2022/05/24 14:59:31;;;;;;;0.60;0.10;;;22.20;53.00;;;;;;10346391;28;20058;-63
2022/05/24 15:04:34;;;;;;;1.00;0.10;;;22.20;53.20;;;;;;10347512;28;20061;-63
2022/05/24 15:20:20;;;;;;;0.20;0.10;;;22.80;52.50;;;;;;10339925;28;20432;-62
2022/05/24 15:25:27;;;;;;;2.13;0.22;;;22.00;52.20;;;;;;10331088;28;20052;-63
2022/05/24 15:30:29;;;;;;;2.15;0.10;;;22.40;51.50;;;;;;10328539;28;20559;-63
2022/05/24 15:35:31;;;;;;;0.40;0.08;;;22.10;50.40;;;;;;10339380;28;20060;-63
2022/05/24 15:40:33;;;;;;;0.00;0.00;;;22.50;51.50;;;;;;10340969;28;20064;-63
2022/05/24 15:45:35;;;;;;;0.20;0.00;;;22.20;50.20;;;;;;10338392;28;20132;-63
2022/05/24 15:50:37;;;;;;;0.50;0.10;;;21.70;51.90;;;;;;10339735;28;20077;-63
2022/05/24 15:55:39;;;;;;;1.73;0.13;;;21.00;53.30;;;;;;10342060;28;20054;-63
2022/05/24 16:00:40;;;;;;;0.05;0.00;;;20.90;55.90;;;;;;10338303;28;20046;-63
2022/05/24 16:11:09;;;;;;;0.45;0.00;;;21.20;56.40;;;;;;10346545;28;20095;-61
2022/05/24 16:16:11;;;;;;;1.25;0.00;;;21.40;53.00;;;;;;10346922;28;20052;-60
2022/05/24 16:21:14;;;;;;;2.28;0.00;;;21.00;53.50;;;;;;10342991;28;20531;-62
2022/05/24 16:26:16;;;;;;;0.50;0.00;;;21.30;53.70;;;;;;10346466;28;20042;-62
2022/05/24 16:31:18;;;;;;;2.08;0.00;;;21.30;53.00;;;;;;10350141;28;20523;-61
2022/05/24 16:36:21;;;;;;;0.20;0.00;;;21.50;53.10;;;;;;10344660;28;20084;-61
2022/05/24 16:41:30;;;;;;;0.00;0.00;;;22.00;51.70;;;;;;10344004;28;20046;-61
2022/05/24 16:46:32;;;;;;;0.10;0.00;;;21.90;52.90;;;;;;10346171;28;20100;-60
2022/05/24 16:51:36;;;;;;;0.98;0.00;;;20.90;51.50;;;;;;10345430;28;20137;-59
2022/05/24 17:01:57;;;;;;;2.25;0.03;;;19.80;51.50;;;;;;10342170;28;20740;-60
2022/05/24 17:07:01;;;;;;;0.73;0.05;;;19.50;51.60;;;;;;10344643;28;20042;-59
2022/05/24 17:12:03;;;;;;;3.58;0.10;;;19.20;52.80;;;;;;10341087;28;20493;-61
2022/05/24 17:17:05;;;;;;;1.08;0.00;;;18.90;53.30;;;;;;10344676;28;20069;-61
2022/05/24 17:22:07;;;;;;;1.58;0.00;;;18.90;55.00;;;;;;10346164;28;20053;-61
2022/05/24 17:27:08;;;;;;;0.10;0.00;;;18.70;55.40;;;;;;10347318;28;20382;-61
2022/05/24 17:32:16;;;;;;;1.77;0.00;;;18.90;54.80;;;;;;10345854;28;20049;-62
2022/05/24 17:37:18;;;;;;;0.00;0.00;;;18.80;55.20;;;;;;10347058;28;20654;-60
2022/05/24 17:42:20;;;;;;;0.00;0.00;;;18.80;55.00;;;;;;10347409;28;20054;-60
2022/05/24 17:47:21;;;;;;;1.13;0.17;;;19.00;55.10;;;;;;10347227;28;20167;-60
2022/05/24 17:52:24;;;;;;;0.65;0.00;;;19.20;56.10;;;;;;10345790;28;20058;-60
2022/05/24 17:57:26;;;;;;;0.10;0.00;;;19.00;57.30;;;;;;10343372;28;20054;-61
2022/05/24 18:02:28;;;;;;;0.10;0.00;;;19.20;56.40;;;;;;10341158;28;20071;-61
2022/05/24 18:07:29;;;;;;;0.25;0.10;;;19.00;57.00;;;;;;10344277;28;20464;-61
2022/05/24 18:12:38;;;;;;;0.20;0.10;;;18.60;57.50;;;;;;10345136;28;20073;-61
2022/05/24 18:17:40;;;;;;;0.10;0.10;;;18.40;59.20;;;;;;10345606;28;20172;-61
2022/05/24 18:22:55;;;;;;;2.22;0.10;;;18.30;58.50;;;;;;10338509;28;20049;-61
2022/05/24 18:33:27;;;;;;;0.63;0.00;;;17.90;61.60;;;;;;10345219;28;20781;-60
2022/05/24 18:38:29;;;;;;;2.75;0.10;;;17.90;63.10;;;;;;10346182;28;20060;-60
2022/05/24 18:43:31;;;;;;;4.38;0.10;;;17.80;63.80;;;;;;10344323;28;20451;-60
2022/05/24 18:48:33;;;;;;;0.75;0.10;;;17.60;65.10;;;;;;10342744;28;20100;-60
2022/05/24 18:53:34;;;;;;;2.03;0.08;;;17.40;65.60;;;;;;10343277;28;20038;-61
2022/05/24 18:58:38;;;;;;;0.32;0.10;;;17.20;65.90;;;;;;10346973;28;20061;-60
2022/05/24 19:03:39;;;;;;;0.43;0.00;;;17.10;66.40;;;;;;10343162;28;20162;-60
2022/05/24 19:08:42;;;;;;;0.20;0.10;;;17.00;66.40;;;;;;10344825;28;20052;-61
2022/05/24 19:13:44;;;;;;;0.20;0.10;;;17.00;67.40;;;;;;10343566;28;20104;-60
2022/05/24 19:18:46;;;;;;;2.50;0.08;;;16.80;68.50;;;;;;10344537;28;20054;-60
2022/05/24 19:23:47;;;;;;;0.10;0.10;;;16.70;68.80;;;;;;10342534;28;20046;-61
2022/05/24 19:28:49;;;;;;;0.10;0.08;;;16.50;70.00;;;;;;10341720;28;20061;-61
2022/05/24 19:33:50;;;;;;;0.40;0.10;;;16.40;71.10;;;;;;10343256;28;20049;-60
2022/05/24 19:44:15;;;;;;;0.73;0.10;;;16.20;72.90;;;;;;10351122;28;20053;-60
2022/05/24 19:49:16;;;;;;;0.25;0.13;;;16.10;73.40;;;;;;10346763;28;20054;-61
2022/05/24 19:54:21;;;;;;;0.75;0.20;;;16.10;74.30;;;;;;10346010;28;20046;-62
2022/05/24 19:59:24;;;;;;;3.58;0.17;;;15.90;75.00;;;;;;10350151;28;20573;-57
2022/05/24 20:04:26;;;;;;;1.55;0.10;;;15.80;75.80;;;;;;10350434;28;20049;-58
2022/05/24 20:09:27;;;;;;;0.17;0.10;;;15.70;76.30;;;;;;10350068;28;20073;-57
2022/05/24 20:14:33;;;;;;;0.60;0.10;;;15.60;77.80;;;;;;10344638;28;20096;-57
2022/05/24 20:19:36;;;;;;;0.40;0.10;;;15.40;77.90;;;;;;10347708;28;20130;-58
2022/05/24 20:24:41;;;;;;;0.50;0.10;;;15.30;81.90;;;;;;10350113;28;20111;-57
2022/05/24 20:29:43;;;;;;;0.30;0.20;;;15.10;83.20;;;;;;10347070;28;20042;-57
2022/05/24 20:34:46;;;;;;;0.32;0.10;;;15.00;87.60;;;;;;10344334;28;20046;-59
2022/05/24 20:39:49;;;;;;;0.20;0.20;;;14.80;89.00;;;;;;10346797;28;20292;-59
2022/05/24 20:44:51;;;;;;;2.00;0.10;;;14.70;90.20;;;;;;10349907;28;20038;-65
2022/05/24 20:49:53;;;;;;;0.13;0.10;;;14.50;90.30;;;;;;10344306;28;20098;-57
2022/05/24 20:54:55;;;;;;;1.70;0.13;;;14.40;90.90;;;;;;10349723;28;20046;-57
2022/05/24 21:00:00;;;;;;;1.08;0.10;;;14.30;91.90;;;;;;10329115;28;20045;-58
2022/05/24 21:05:01;;;;;;;2.40;0.10;;;14.30;92.50;;;;;;10346505;28;20050;-59
2022/05/24 21:10:05;;;;;;;1.10;0.35;;;14.30;93.90;;;;;;10349472;28;20120;-59
2022/05/24 21:15:08;;;;;;;1.27;0.30;;;14.10;97.00;;;;;;10348213;28;20519;-59
2022/05/24 21:20:10;;;;;;;1.55;0.30;;;14.10;99.30;;;;;;10349816;28;20116;-58
2022/05/24 21:30:38;;;;;;;0.32;0.20;;;13.80;99.90;;;;;;10345812;28;20057;-59
2022/05/24 21:35:42;;;;;;;1.20;0.20;;;13.80;99.90;;;;;;10346534;28;20099;-58
2022/05/24 21:40:44;;;;;;;1.45;0.20;;;13.80;99.90;;;;;;10345920;28;20062;-59
2022/05/24 21:45:47;;;;;;;0.40;0.20;;;13.70;99.90;;;;;;10347162;28;20393;-58
2022/05/24 21:50:49;;;;;;;6.78;0.30;;;13.60;99.90;;;;;;10344129;28;20050;-58
2022/05/24 21:55:51;;;;;;;0.98;0.20;;;13.60;99.90;;;;;;10345974;28;20100;-58
2022/05/24 22:00:56;;;;;;;1.73;0.30;;;13.60;99.90;;;;;;10343973;28;20046;-58
2022/05/24 22:06:03;;;;;;;0.93;0.30;;;13.50;99.90;;;;;;10345565;28;20053;-58
2022/05/24 22:11:08;;;;;;;0.88;0.28;;;13.50;99.90;;;;;;10346536;28;20394;-58
2022/05/24 22:16:10;;;;;;;0.85;0.40;;;13.50;99.90;;;;;;10344766;28;20103;-59
2022/05/24 22:21:13;;;;;;;4.85;0.40;;;13.40;99.90;;;;;;10343760;28;20060;-59
2022/05/24 22:26:20;;;;;;;0.70;0.40;;;13.40;99.90;;;;;;10344485;28;20049;-59
2022/05/24 22:31:21;;;;;;;5.13;0.50;;;13.30;99.90;;;;;;10340953;28;20076;-59
2022/05/24 22:36:23;;;;;;;5.03;0.30;;;13.30;99.90;;;;;;10344750;28;20140;-58
2022/05/24 22:41:25;;;;;;;0.60;0.20;;;13.20;99.90;;;;;;10342375;28;20050;-59
2022/05/24 22:46:27;;;;;;;0.52;0.30;;;13.10;99.90;;;;;;10345245;28;20100;-58
2022/05/24 22:51:29;;;;;;;3.00;0.30;;;13.10;99.90;;;;;;10342557;28;20088;-59
2022/05/24 22:56:31;;;;;;;0.47;0.28;;;13.00;99.90;;;;;;10342672;28;20068;-58
2022/05/24 23:01:32;;;;;;;2.47;0.40;;;12.90;99.90;;;;;;10342692;28;20570;-58
2022/05/24 23:06:34;;;;;;;2.28;0.30;;;12.80;99.90;;;;;;10340515;28;20639;-58
2022/05/24 23:11:39;;;;;;;0.70;0.30;;;12.80;99.90;;;;;;10342370;28;20467;-58
2022/05/24 23:16:40;;;;;;;0.22;0.20;;;12.70;99.90;;;;;;10351418;28;20049;-59
2022/05/24 23:21:42;;;;;;;3.30;0.30;;;12.70;99.90;;;;;;10353003;28;20116;-58
2022/05/24 23:26:46;;;;;;;4.63;0.50;;;12.50;99.90;;;;;;10350030;28;20074;-58
2022/05/24 23:31:53;;;;;;;2.15;0.38;;;12.50;99.90;;;;;;10350303;28;20052;-59
2022/05/24 23:36:55;;;;;;;0.65;0.30;;;12.40;99.90;;;;;;10350646;28;20053;-58
2022/05/24 23:41:59;;;;;;;1.23;0.47;;;12.40;99.90;;;;;;10352251;28;20056;-58
2022/05/24 23:47:01;;;;;;;0.93;0.55;;;12.30;99.90;;;;;;10351491;28;20076;-58
2022/05/24 23:52:03;;;;;;;0.73;0.30;;;12.20;99.90;;;;;;10351068;28;20045;-58
2022/05/24 23:57:06;;;;;;;6.22;1.35;;;12.10;99.90;;;;;;10350917;28;20046;-58
